sensor_id;sensor_type;location;lat;lon;timestamp;P1;durP1;ratioP1;P2;durP2;ratioP2
3916;SDS011;1973;50.518;7.318;2023-08-12T00:00:05;12.37;;;11.17;;
3916;SDS011;1973;50.518;7.318;2023-08-12T00:02:38;15.77;;;11.50;;
3916;SDS011;1973;50.518;7.318;2023-08-12T00:05:08;20.40;;;14.30;;
3916;SDS011;1973;50.518;7.318;2023-08-12T00:07:41;21.60;;;19.40;;
3916;SDS011;1973;50.518;7.318;2023-08-12T00:10:08;19.77;;;16.97;;
3916;SDS011;1973;50.518;7.318;2023-08-12T00:12:37;15.80;;;13.83;;
3916;SDS011;1973;50.518;7.318;2023-08-12T00:15:04;15.57;;;13.60;;
3916;SDS011;1973;50.518;7.318;2023-08-12T00:17:33;17.90;;;13.53;;
3916;SDS011;1973;50.518;7.318;2023-08-12T00:20:01;16.13;;;14.20;;
3916;SDS011;1973;50.518;7.318;2023-08-12T00:22:32;16.77;;;14.90;;
3916;SDS011;1973;50.518;7.318;2023-08-12T00:24:58;15.03;;;13.47;;
3916;SDS011;1973;50.518;7.318;2023-08-12T00:27:25;16.60;;;14.70;;
3916;SDS011;1973;50.518;7.318;2023-08-12T00:29:51;22.53;;;15.07;;
3916;SDS011;1973;50.518;7.318;2023-08-12T00:32:18;18.73;;;15.07;;
3916;SDS011;1973;50.518;7.318;2023-08-12T00:34:44;18.27;;;16.47;;
3916;SDS011;1973;50.518;7.318;2023-08-12T00:37:11;17.17;;;15.00;;
3916;SDS011;1973;50.518;7.318;2023-08-12T00:39:38;18.53;;;16.50;;
3916;SDS011;1973;50.518;7.318;2023-08-12T00:42:04;15.50;;;13.90;;
3916;SDS011;1973;50.518;7.318;2023-08-12T00:44:31;17.10;;;14.40;;
3916;SDS011;1973;50.518;7.318;2023-08-12T00:46:58;16.60;;;14.90;;
3916;SDS011;1973;50.518;7.318;2023-08-12T00:49:25;18.27;;;16.57;;
3916;SDS011;1973;50.518;7.318;2023-08-12T00:51:53;16.50;;;14.90;;
3916;SDS011;1973;50.518;7.318;2023-08-12T00:54:21;14.83;;;13.43;;
3916;SDS011;1973;50.518;7.318;2023-08-12T00:56:49;15.80;;;14.23;;
3916;SDS011;1973;50.518;7.318;2023-08-12T00:59:17;15.03;;;13.63;;
3916;SDS011;1973;50.518;7.318;2023-08-12T01:01:43;17.50;;;15.80;;
3916;SDS011;1973;50.518;7.318;2023-08-12T01:04:10;16.40;;;14.77;;
3916;SDS011;1973;50.518;7.318;2023-08-12T01:06:37;20.13;;;17.63;;
3916;SDS011;1973;50.518;7.318;2023-08-12T01:09:04;19.50;;;17.50;;
3916;SDS011;1973;50.518;7.318;2023-08-12T01:16:56;22.07;;;18.50;;
3916;SDS011;1973;50.518;7.318;2023-08-12T01:22:00;21.80;;;19.70;;
3916;SDS011;1973;50.518;7.318;2023-08-12T01:24:34;21.37;;;18.50;;
3916;SDS011;1973;50.518;7.318;2023-08-12T01:27:19;22.30;;;20.17;;
3916;SDS011;1973;50.518;7.318;2023-08-12T01:29:47;21.30;;;19.20;;
3916;SDS011;1973;50.518;7.318;2023-08-12T01:32:28;20.57;;;18.50;;
3916;SDS011;1973;50.518;7.318;2023-08-12T01:35:09;20.30;;;18.40;;
3916;SDS011;1973;50.518;7.318;2023-08-12T01:37:44;16.07;;;14.53;;
3916;SDS011;1973;50.518;7.318;2023-08-12T01:40:11;15.37;;;13.87;;
3916;SDS011;1973;50.518;7.318;2023-08-12T01:42:41;15.57;;;14.10;;
3916;SDS011;1973;50.518;7.318;2023-08-12T01:45:08;15.70;;;14.20;;
3916;SDS011;1973;50.518;7.318;2023-08-12T01:47:35;15.50;;;14.10;;
3916;SDS011;1973;50.518;7.318;2023-08-12T01:50:02;14.33;;;12.93;;
3916;SDS011;1973;50.518;7.318;2023-08-12T01:52:29;11.77;;;10.70;;
3916;SDS011;1973;50.518;7.318;2023-08-12T01:54:55;10.30;;;9.30;;
3916;SDS011;1973;50.518;7.318;2023-08-12T01:57:22;10.27;;;9.20;;
3916;SDS011;1973;50.518;7.318;2023-08-12T01:59:49;9.77;;;8.80;;
3916;SDS011;1973;50.518;7.318;2023-08-12T02:02:17;9.37;;;8.50;;
3916;SDS011;1973;50.518;7.318;2023-08-12T02:04:43;9.23;;;8.43;;
3916;SDS011;1973;50.518;7.318;2023-08-12T02:07:10;9.83;;;8.83;;
3916;SDS011;1973;50.518;7.318;2023-08-12T02:09:37;10.00;;;9.10;;
3916;SDS011;1973;50.518;7.318;2023-08-12T02:12:04;10.13;;;9.10;;
3916;SDS011;1973;50.518;7.318;2023-08-12T02:14:31;9.17;;;8.03;;
3916;SDS011;1973;50.518;7.318;2023-08-12T02:16:58;8.77;;;8.07;;
3916;SDS011;1973;50.518;7.318;2023-08-12T02:19:24;8.80;;;8.00;;
3916;SDS011;1973;50.518;7.318;2023-08-12T02:21:51;8.83;;;8.03;;
3916;SDS011;1973;50.518;7.318;2023-08-12T02:24:17;9.10;;;8.23;;
3916;SDS011;1973;50.518;7.318;2023-08-12T02:26:44;9.53;;;8.80;;
3916;SDS011;1973;50.518;7.318;2023-08-12T02:29:10;9.77;;;8.77;;
3916;SDS011;1973;50.518;7.318;2023-08-12T02:31:37;10.00;;;9.00;;
3916;SDS011;1973;50.518;7.318;2023-08-12T02:34:03;9.63;;;8.63;;
3916;SDS011;1973;50.518;7.318;2023-08-12T02:36:30;9.80;;;8.87;;
3916;SDS011;1973;50.518;7.318;2023-08-12T02:38:57;11.20;;;10.20;;
3916;SDS011;1973;50.518;7.318;2023-08-12T02:41:23;10.50;;;9.40;;
3916;SDS011;1973;50.518;7.318;2023-08-12T02:43:50;11.97;;;10.90;;
3916;SDS011;1973;50.518;7.318;2023-08-12T02:46:16;12.53;;;11.37;;
3916;SDS011;1973;50.518;7.318;2023-08-12T02:48:45;12.20;;;11.07;;
3916;SDS011;1973;50.518;7.318;2023-08-12T02:51:13;11.80;;;10.80;;
3916;SDS011;1973;50.518;7.318;2023-08-12T02:53:40;11.53;;;10.43;;
3916;SDS011;1973;50.518;7.318;2023-08-12T02:56:06;10.00;;;9.00;;
3916;SDS011;1973;50.518;7.318;2023-08-12T02:58:33;9.47;;;8.57;;
3916;SDS011;1973;50.518;7.318;2023-08-12T03:01:00;9.10;;;8.30;;
3916;SDS011;1973;50.518;7.318;2023-08-12T03:03:27;9.93;;;8.80;;
3916;SDS011;1973;50.518;7.318;2023-08-12T03:05:53;9.27;;;8.47;;
3916;SDS011;1973;50.518;7.318;2023-08-12T03:08:20;8.90;;;8.20;;
3916;SDS011;1973;50.518;7.318;2023-08-12T03:10:46;7.47;;;6.87;;
3916;SDS011;1973;50.518;7.318;2023-08-12T03:13:13;8.87;;;8.03;;
3916;SDS011;1973;50.518;7.318;2023-08-12T03:15:39;7.70;;;7.00;;
3916;SDS011;1973;50.518;7.318;2023-08-12T03:18:06;8.73;;;7.83;;
3916;SDS011;1973;50.518;7.318;2023-08-12T03:20:33;9.47;;;8.57;;
3916;SDS011;1973;50.518;7.318;2023-08-12T03:22:59;8.30;;;7.60;;
3916;SDS011;1973;50.518;7.318;2023-08-12T03:25:26;9.87;;;9.07;;
3916;SDS011;1973;50.518;7.318;2023-08-12T03:27:53;9.10;;;8.07;;
3916;SDS011;1973;50.518;7.318;2023-08-12T03:30:19;9.33;;;8.53;;
3916;SDS011;1973;50.518;7.318;2023-08-12T03:32:46;9.20;;;8.30;;
3916;SDS011;1973;50.518;7.318;2023-08-12T03:35:13;7.97;;;7.37;;
3916;SDS011;1973;50.518;7.318;2023-08-12T03:37:39;7.93;;;7.27;;
3916;SDS011;1973;50.518;7.318;2023-08-12T03:40:06;9.93;;;8.00;;
3916;SDS011;1973;50.518;7.318;2023-08-12T03:42:33;8.83;;;7.93;;
3916;SDS011;1973;50.518;7.318;2023-08-12T03:45:00;8.73;;;8.00;;
3916;SDS011;1973;50.518;7.318;2023-08-12T03:47:27;8.40;;;7.70;;
3916;SDS011;1973;50.518;7.318;2023-08-12T03:49:53;12.30;;;8.93;;
3916;SDS011;1973;50.518;7.318;2023-08-12T03:52:20;10.00;;;8.87;;
3916;SDS011;1973;50.518;7.318;2023-08-12T03:54:47;10.00;;;9.10;;
3916;SDS011;1973;50.518;7.318;2023-08-12T03:57:13;9.57;;;8.80;;
3916;SDS011;1973;50.518;7.318;2023-08-12T03:59:40;10.43;;;9.13;;
3916;SDS011;1973;50.518;7.318;2023-08-12T04:02:07;10.20;;;9.30;;
3916;SDS011;1973;50.518;7.318;2023-08-12T04:04:33;10.17;;;9.37;;
3916;SDS011;1973;50.518;7.318;2023-08-12T04:07:00;11.13;;;9.30;;
3916;SDS011;1973;50.518;7.318;2023-08-12T04:09:26;10.53;;;9.60;;
3916;SDS011;1973;50.518;7.318;2023-08-12T04:11:53;10.80;;;9.77;;
3916;SDS011;1973;50.518;7.318;2023-08-12T04:14:19;10.93;;;9.60;;
3916;SDS011;1973;50.518;7.318;2023-08-12T04:16:46;11.00;;;9.90;;
3916;SDS011;1973;50.518;7.318;2023-08-12T04:19:13;11.50;;;9.70;;
3916;SDS011;1973;50.518;7.318;2023-08-12T04:21:39;10.33;;;9.33;;
3916;SDS011;1973;50.518;7.318;2023-08-12T04:24:06;9.83;;;9.03;;
3916;SDS011;1973;50.518;7.318;2023-08-12T04:26:33;10.50;;;9.60;;
3916;SDS011;1973;50.518;7.318;2023-08-12T04:28:59;10.47;;;9.50;;
3916;SDS011;1973;50.518;7.318;2023-08-12T04:31:26;10.77;;;9.90;;
3916;SDS011;1973;50.518;7.318;2023-08-12T04:33:53;10.57;;;9.67;;
3916;SDS011;1973;50.518;7.318;2023-08-12T04:36:19;9.83;;;8.90;;
3916;SDS011;1973;50.518;7.318;2023-08-12T04:38:46;13.53;;;8.70;;
3916;SDS011;1973;50.518;7.318;2023-08-12T04:41:12;9.47;;;8.67;;
3916;SDS011;1973;50.518;7.318;2023-08-12T04:43:39;10.80;;;9.80;;
3916;SDS011;1973;50.518;7.318;2023-08-12T04:46:06;11.00;;;10.10;;
3916;SDS011;1973;50.518;7.318;2023-08-12T04:48:32;9.47;;;8.67;;
3916;SDS011;1973;50.518;7.318;2023-08-12T04:50:59;10.77;;;9.80;;
3916;SDS011;1973;50.518;7.318;2023-08-12T04:53:29;10.30;;;9.40;;
3916;SDS011;1973;50.518;7.318;2023-08-12T04:55:56;10.47;;;9.47;;
3916;SDS011;1973;50.518;7.318;2023-08-12T04:58:23;8.83;;;7.93;;
3916;SDS011;1973;50.518;7.318;2023-08-12T05:00:50;9.90;;;8.83;;
3916;SDS011;1973;50.518;7.318;2023-08-12T05:03:18;11.00;;;9.73;;
3916;SDS011;1973;50.518;7.318;2023-08-12T05:05:48;9.17;;;8.37;;
3916;SDS011;1973;50.518;7.318;2023-08-12T05:08:18;11.27;;;9.03;;
3916;SDS011;1973;50.518;7.318;2023-08-12T05:10:48;10.30;;;9.30;;
3916;SDS011;1973;50.518;7.318;2023-08-12T05:13:15;9.93;;;9.03;;
3916;SDS011;1973;50.518;7.318;2023-08-12T05:15:44;12.20;;;8.20;;
3916;SDS011;1973;50.518;7.318;2023-08-12T05:18:13;8.90;;;8.10;;
3916;SDS011;1973;50.518;7.318;2023-08-12T05:20:40;9.10;;;8.20;;
3916;SDS011;1973;50.518;7.318;2023-08-12T05:23:11;9.77;;;8.87;;
3916;SDS011;1973;50.518;7.318;2023-08-12T05:25:38;9.73;;;8.80;;
3916;SDS011;1973;50.518;7.318;2023-08-12T05:28:05;9.90;;;9.00;;
3916;SDS011;1973;50.518;7.318;2023-08-12T05:30:32;9.43;;;8.10;;
3916;SDS011;1973;50.518;7.318;2023-08-12T05:32:59;7.27;;;6.50;;
3916;SDS011;1973;50.518;7.318;2023-08-12T05:35:26;8.50;;;7.40;;
3916;SDS011;1973;50.518;7.318;2023-08-12T05:37:53;8.30;;;6.90;;
3916;SDS011;1973;50.518;7.318;2023-08-12T05:40:19;7.63;;;6.60;;
3916;SDS011;1973;50.518;7.318;2023-08-12T05:42:46;8.33;;;6.97;;
3916;SDS011;1973;50.518;7.318;2023-08-12T05:45:12;9.87;;;7.37;;
3916;SDS011;1973;50.518;7.318;2023-08-12T05:47:39;7.20;;;6.50;;
3916;SDS011;1973;50.518;7.318;2023-08-12T05:50:06;7.77;;;6.47;;
3916;SDS011;1973;50.518;7.318;2023-08-12T05:52:33;8.00;;;7.10;;
3916;SDS011;1973;50.518;7.318;2023-08-12T05:54:59;8.93;;;8.10;;
3916;SDS011;1973;50.518;7.318;2023-08-12T05:57:26;7.67;;;6.87;;
3916;SDS011;1973;50.518;7.318;2023-08-12T05:59:55;7.20;;;6.37;;
3916;SDS011;1973;50.518;7.318;2023-08-12T06:02:21;8.10;;;7.20;;
3916;SDS011;1973;50.518;7.318;2023-08-12T06:04:48;11.43;;;6.90;;
3916;SDS011;1973;50.518;7.318;2023-08-12T06:07:15;7.57;;;6.87;;
3916;SDS011;1973;50.518;7.318;2023-08-12T06:09:41;8.80;;;7.20;;
3916;SDS011;1973;50.518;7.318;2023-08-12T06:12:09;8.00;;;6.07;;
3916;SDS011;1973;50.518;7.318;2023-08-12T06:14:39;7.67;;;6.97;;
3916;SDS011;1973;50.518;7.318;2023-08-12T06:17:06;7.70;;;6.67;;
3916;SDS011;1973;50.518;7.318;2023-08-12T06:19:33;10.47;;;6.97;;
3916;SDS011;1973;50.518;7.318;2023-08-12T06:21:59;9.20;;;7.57;;
3916;SDS011;1973;50.518;7.318;2023-08-12T06:24:26;8.10;;;7.30;;
3916;SDS011;1973;50.518;7.318;2023-08-12T06:26:53;9.03;;;8.10;;
3916;SDS011;1973;50.518;7.318;2023-08-12T06:29:19;5.70;;;5.20;;
3916;SDS011;1973;50.518;7.318;2023-08-12T06:31:46;7.83;;;4.97;;
3916;SDS011;1973;50.518;7.318;2023-08-12T06:34:13;5.70;;;4.43;;
3916;SDS011;1973;50.518;7.318;2023-08-12T06:36:39;5.20;;;4.40;;
3916;SDS011;1973;50.518;7.318;2023-08-12T06:39:06;5.50;;;4.17;;
3916;SDS011;1973;50.518;7.318;2023-08-12T06:41:32;5.63;;;5.13;;
3916;SDS011;1973;50.518;7.318;2023-08-12T06:43:59;6.17;;;5.40;;
3916;SDS011;1973;50.518;7.318;2023-08-12T06:46:27;7.77;;;5.00;;
3916;SDS011;1973;50.518;7.318;2023-08-12T06:48:54;7.07;;;5.20;;
3916;SDS011;1973;50.518;7.318;2023-08-12T06:51:21;5.27;;;4.77;;
3916;SDS011;1973;50.518;7.318;2023-08-12T06:53:47;5.93;;;4.93;;
3916;SDS011;1973;50.518;7.318;2023-08-12T06:56:14;6.27;;;5.20;;
3916;SDS011;1973;50.518;7.318;2023-08-12T06:58:41;8.90;;;5.73;;
3916;SDS011;1973;50.518;7.318;2023-08-12T07:01:07;5.73;;;5.23;;
3916;SDS011;1973;50.518;7.318;2023-08-12T07:03:34;5.77;;;4.67;;
3916;SDS011;1973;50.518;7.318;2023-08-12T07:06:01;5.30;;;4.80;;
3916;SDS011;1973;50.518;7.318;2023-08-12T07:08:27;5.60;;;4.80;;
3916;SDS011;1973;50.518;7.318;2023-08-12T07:10:54;6.53;;;5.00;;
3916;SDS011;1973;50.518;7.318;2023-08-12T07:13:20;4.47;;;4.07;;
3916;SDS011;1973;50.518;7.318;2023-08-12T07:15:47;6.50;;;4.30;;
3916;SDS011;1973;50.518;7.318;2023-08-12T07:18:14;4.83;;;4.20;;
3916;SDS011;1973;50.518;7.318;2023-08-12T07:20:40;7.40;;;4.50;;
3916;SDS011;1973;50.518;7.318;2023-08-12T07:23:07;4.37;;;3.97;;
3916;SDS011;1973;50.518;7.318;2023-08-12T07:25:33;5.33;;;4.83;;
3916;SDS011;1973;50.518;7.318;2023-08-12T07:28:00;7.67;;;4.27;;
3916;SDS011;1973;50.518;7.318;2023-08-12T07:30:26;9.00;;;4.30;;
3916;SDS011;1973;50.518;7.318;2023-08-12T07:32:53;5.60;;;4.20;;
3916;SDS011;1973;50.518;7.318;2023-08-12T07:35:20;5.97;;;4.47;;
3916;SDS011;1973;50.518;7.318;2023-08-12T07:37:46;4.73;;;4.03;;
3916;SDS011;1973;50.518;7.318;2023-08-12T07:40:13;5.87;;;4.73;;
3916;SDS011;1973;50.518;7.318;2023-08-12T07:42:39;6.37;;;4.60;;
3916;SDS011;1973;50.518;7.318;2023-08-12T07:45:06;6.47;;;4.73;;
3916;SDS011;1973;50.518;7.318;2023-08-12T07:47:34;7.00;;;4.80;;
3916;SDS011;1973;50.518;7.318;2023-08-12T07:50:00;8.53;;;4.93;;
3916;SDS011;1973;50.518;7.318;2023-08-12T07:52:27;5.40;;;4.80;;
3916;SDS011;1973;50.518;7.318;2023-08-12T07:54:53;6.20;;;4.00;;
3916;SDS011;1973;50.518;7.318;2023-08-12T07:57:20;6.03;;;5.00;;
3916;SDS011;1973;50.518;7.318;2023-08-12T07:59:52;7.20;;;4.40;;
3916;SDS011;1973;50.518;7.318;2023-08-12T08:02:19;14.43;;;4.73;;
3916;SDS011;1973;50.518;7.318;2023-08-12T08:04:45;5.67;;;5.03;;
3916;SDS011;1973;50.518;7.318;2023-08-12T08:07:15;5.50;;;4.20;;
3916;SDS011;1973;50.518;7.318;2023-08-12T08:09:43;6.40;;;4.77;;
3916;SDS011;1973;50.518;7.318;2023-08-12T08:12:10;6.30;;;4.27;;
3916;SDS011;1973;50.518;7.318;2023-08-12T08:14:37;4.00;;;3.63;;
3916;SDS011;1973;50.518;7.318;2023-08-12T08:17:09;6.20;;;4.60;;
3916;SDS011;1973;50.518;7.318;2023-08-12T08:19:36;6.93;;;4.47;;
3916;SDS011;1973;50.518;7.318;2023-08-12T08:22:03;7.13;;;4.70;;
3916;SDS011;1973;50.518;7.318;2023-08-12T08:24:30;5.17;;;3.83;;
3916;SDS011;1973;50.518;7.318;2023-08-12T08:26:57;4.50;;;4.10;;
3916;SDS011;1973;50.518;7.318;2023-08-12T08:29:23;4.60;;;4.10;;
3916;SDS011;1973;50.518;7.318;2023-08-12T08:31:50;5.20;;;4.47;;
3916;SDS011;1973;50.518;7.318;2023-08-12T08:34:17;6.77;;;4.57;;
3916;SDS011;1973;50.518;7.318;2023-08-12T08:36:44;4.40;;;4.00;;
3916;SDS011;1973;50.518;7.318;2023-08-12T08:39:10;4.47;;;3.60;;
3916;SDS011;1973;50.518;7.318;2023-08-12T08:41:38;4.70;;;3.93;;
3916;SDS011;1973;50.518;7.318;2023-08-12T08:44:08;4.33;;;3.87;;
3916;SDS011;1973;50.518;7.318;2023-08-12T08:46:35;3.90;;;3.50;;
3916;SDS011;1973;50.518;7.318;2023-08-12T08:49:02;4.80;;;3.30;;
3916;SDS011;1973;50.518;7.318;2023-08-12T08:51:30;4.63;;;3.80;;
3916;SDS011;1973;50.518;7.318;2023-08-12T08:53:58;3.77;;;3.37;;
3916;SDS011;1973;50.518;7.318;2023-08-12T08:56:30;4.53;;;3.70;;
3916;SDS011;1973;50.518;7.318;2023-08-12T08:58:59;4.63;;;3.90;;
3916;SDS011;1973;50.518;7.318;2023-08-12T09:01:26;4.57;;;4.10;;
3916;SDS011;1973;50.518;7.318;2023-08-12T09:03:55;4.27;;;3.60;;
3916;SDS011;1973;50.518;7.318;2023-08-12T09:06:26;7.87;;;3.57;;
3916;SDS011;1973;50.518;7.318;2023-08-12T09:08:55;6.27;;;3.60;;
3916;SDS011;1973;50.518;7.318;2023-08-12T09:11:22;4.37;;;3.97;;
3916;SDS011;1973;50.518;7.318;2023-08-12T09:13:49;5.00;;;3.40;;
3916;SDS011;1973;50.518;7.318;2023-08-12T09:16:15;4.67;;;3.80;;
3916;SDS011;1973;50.518;7.318;2023-08-12T09:18:42;5.60;;;3.60;;
3916;SDS011;1973;50.518;7.318;2023-08-12T09:21:09;6.73;;;3.47;;
3916;SDS011;1973;50.518;7.318;2023-08-12T09:23:40;3.80;;;3.40;;
3916;SDS011;1973;50.518;7.318;2023-08-12T09:26:14;4.13;;;3.53;;
3916;SDS011;1973;50.518;7.318;2023-08-12T09:28:45;5.13;;;3.60;;
3916;SDS011;1973;50.518;7.318;2023-08-12T09:31:26;4.07;;;3.67;;
3916;SDS011;1973;50.518;7.318;2023-08-12T09:34:04;4.80;;;4.37;;
3916;SDS011;1973;50.518;7.318;2023-08-12T09:36:33;5.73;;;3.77;;
3916;SDS011;1973;50.518;7.318;2023-08-12T09:39:00;5.67;;;3.23;;
3916;SDS011;1973;50.518;7.318;2023-08-12T09:41:32;3.63;;;3.33;;
3916;SDS011;1973;50.518;7.318;2023-08-12T09:44:02;5.90;;;3.57;;
3916;SDS011;1973;50.518;7.318;2023-08-12T09:46:29;4.93;;;3.70;;
3916;SDS011;1973;50.518;7.318;2023-08-12T09:48:59;5.37;;;3.10;;
3916;SDS011;1973;50.518;7.318;2023-08-12T09:51:26;5.43;;;3.53;;
3916;SDS011;1973;50.518;7.318;2023-08-12T09:53:53;4.80;;;3.20;;
3916;SDS011;1973;50.518;7.318;2023-08-12T09:56:22;4.77;;;3.43;;
3916;SDS011;1973;50.518;7.318;2023-08-12T09:58:49;3.57;;;3.27;;
3916;SDS011;1973;50.518;7.318;2023-08-12T10:01:18;5.63;;;3.80;;
3916;SDS011;1973;50.518;7.318;2023-08-12T10:03:48;4.30;;;3.57;;
3916;SDS011;1973;50.518;7.318;2023-08-12T10:06:16;4.23;;;3.87;;
3916;SDS011;1973;50.518;7.318;2023-08-12T10:08:47;5.17;;;3.30;;
3916;SDS011;1973;50.518;7.318;2023-08-12T10:11:15;4.47;;;3.73;;
3916;SDS011;1973;50.518;7.318;2023-08-12T10:13:42;4.93;;;4.20;;
3916;SDS011;1973;50.518;7.318;2023-08-12T10:16:09;7.70;;;3.53;;
3916;SDS011;1973;50.518;7.318;2023-08-12T10:18:38;3.73;;;3.20;;
3916;SDS011;1973;50.518;7.318;2023-08-12T10:21:08;3.63;;;3.33;;
3916;SDS011;1973;50.518;7.318;2023-08-12T10:23:37;4.10;;;3.70;;
3916;SDS011;1973;50.518;7.318;2023-08-12T10:26:05;9.50;;;3.70;;
3916;SDS011;1973;50.518;7.318;2023-08-12T10:28:33;4.53;;;4.13;;
3916;SDS011;1973;50.518;7.318;2023-08-12T10:31:04;5.60;;;3.57;;
3916;SDS011;1973;50.518;7.318;2023-08-12T10:33:35;4.20;;;3.50;;
3916;SDS011;1973;50.518;7.318;2023-08-12T10:36:03;4.37;;;3.33;;
3916;SDS011;1973;50.518;7.318;2023-08-12T10:38:31;4.23;;;3.57;;
3916;SDS011;1973;50.518;7.318;2023-08-12T10:41:17;3.97;;;3.50;;
3916;SDS011;1973;50.518;7.318;2023-08-12T10:43:49;4.63;;;3.90;;
3916;SDS011;1973;50.518;7.318;2023-08-12T10:46:22;5.70;;;4.10;;
3916;SDS011;1973;50.518;7.318;2023-08-12T10:49:05;4.07;;;3.57;;
3916;SDS011;1973;50.518;7.318;2023-08-12T10:51:57;4.47;;;4.07;;
3916;SDS011;1973;50.518;7.318;2023-08-12T10:54:21;5.20;;;4.30;;
3916;SDS011;1973;50.518;7.318;2023-08-12T11:02:17;6.30;;;5.50;;
3916;SDS011;1973;50.518;7.318;2023-08-12T11:04:57;6.57;;;5.73;;
3916;SDS011;1973;50.518;7.318;2023-08-12T11:09:59;5.40;;;4.00;;
3916;SDS011;1973;50.518;7.318;2023-08-12T11:12:30;5.87;;;4.27;;
3916;SDS011;1973;50.518;7.318;2023-08-12T11:14:58;5.40;;;3.70;;
3916;SDS011;1973;50.518;7.318;2023-08-12T11:17:33;6.90;;;3.60;;
3916;SDS011;1973;50.518;7.318;2023-08-12T11:20:03;4.33;;;3.03;;
3916;SDS011;1973;50.518;7.318;2023-08-12T11:22:41;6.00;;;2.73;;
3916;SDS011;1973;50.518;7.318;2023-08-12T11:25:09;4.60;;;3.17;;
3916;SDS011;1973;50.518;7.318;2023-08-12T11:27:47;4.37;;;3.67;;
3916;SDS011;1973;50.518;7.318;2023-08-12T11:30:15;3.50;;;2.67;;
3916;SDS011;1973;50.518;7.318;2023-08-12T11:32:43;4.70;;;3.03;;
3916;SDS011;1973;50.518;7.318;2023-08-12T11:35:12;4.80;;;2.30;;
3916;SDS011;1973;50.518;7.318;2023-08-12T11:37:40;4.93;;;2.63;;
3916;SDS011;1973;50.518;7.318;2023-08-12T11:40:08;4.80;;;2.40;;
3916;SDS011;1973;50.518;7.318;2023-08-12T11:42:40;3.00;;;2.70;;
3916;SDS011;1973;50.518;7.318;2023-08-12T11:45:08;5.37;;;3.00;;
3916;SDS011;1973;50.518;7.318;2023-08-12T11:47:36;4.03;;;2.20;;
3916;SDS011;1973;50.518;7.318;2023-08-12T11:50:07;3.90;;;3.33;;
3916;SDS011;1973;50.518;7.318;2023-08-12T11:52:35;3.07;;;2.77;;
3916;SDS011;1973;50.518;7.318;2023-08-12T11:55:03;4.27;;;3.20;;
3916;SDS011;1973;50.518;7.318;2023-08-12T11:57:32;2.80;;;2.50;;
3916;SDS011;1973;50.518;7.318;2023-08-12T12:00:01;3.00;;;2.47;;
3916;SDS011;1973;50.518;7.318;2023-08-12T12:02:41;3.50;;;3.10;;
3916;SDS011;1973;50.518;7.318;2023-08-12T12:05:20;3.67;;;2.43;;
3916;SDS011;1973;50.518;7.318;2023-08-12T12:07:52;2.50;;;2.10;;
3916;SDS011;1973;50.518;7.318;2023-08-12T12:10:20;3.50;;;2.10;;
3916;SDS011;1973;50.518;7.318;2023-08-12T12:13:00;3.47;;;2.10;;
3916;SDS011;1973;50.518;7.318;2023-08-12T12:15:27;2.03;;;1.80;;
3916;SDS011;1973;50.518;7.318;2023-08-12T12:17:54;4.93;;;2.30;;
3916;SDS011;1973;50.518;7.318;2023-08-12T12:20:21;2.67;;;2.07;;
3916;SDS011;1973;50.518;7.318;2023-08-12T12:22:48;2.83;;;2.37;;
3916;SDS011;1973;50.518;7.318;2023-08-12T12:25:15;3.40;;;2.47;;
3916;SDS011;1973;50.518;7.318;2023-08-12T12:27:45;4.27;;;2.27;;
3916;SDS011;1973;50.518;7.318;2023-08-12T12:30:12;3.40;;;2.70;;
3916;SDS011;1973;50.518;7.318;2023-08-12T12:32:40;4.10;;;2.10;;
3916;SDS011;1973;50.518;7.318;2023-08-12T12:35:07;3.23;;;1.83;;
3916;SDS011;1973;50.518;7.318;2023-08-12T12:37:34;4.27;;;2.10;;
3916;SDS011;1973;50.518;7.318;2023-08-12T12:40:02;2.90;;;1.70;;
3916;SDS011;1973;50.518;7.318;2023-08-12T12:42:30;3.93;;;2.00;;
3916;SDS011;1973;50.518;7.318;2023-08-12T12:44:56;2.90;;;2.37;;
3916;SDS011;1973;50.518;7.318;2023-08-12T12:47:23;2.57;;;2.30;;
3916;SDS011;1973;50.518;7.318;2023-08-12T12:49:50;2.43;;;2.20;;
3916;SDS011;1973;50.518;7.318;2023-08-12T12:52:17;3.23;;;2.90;;
3916;SDS011;1973;50.518;7.318;2023-08-12T12:54:43;4.47;;;2.97;;
3916;SDS011;1973;50.518;7.318;2023-08-12T12:57:10;3.43;;;2.17;;
3916;SDS011;1973;50.518;7.318;2023-08-12T12:59:36;2.80;;;2.27;;
3916;SDS011;1973;50.518;7.318;2023-08-12T13:02:03;2.97;;;2.07;;
3916;SDS011;1973;50.518;7.318;2023-08-12T13:04:29;2.67;;;1.97;;
3916;SDS011;1973;50.518;7.318;2023-08-12T13:06:56;1.70;;;1.40;;
3916;SDS011;1973;50.518;7.318;2023-08-12T13:09:23;3.30;;;1.70;;
3916;SDS011;1973;50.518;7.318;2023-08-12T13:11:49;2.13;;;1.53;;
3916;SDS011;1973;50.518;7.318;2023-08-12T13:14:16;2.37;;;1.60;;
3916;SDS011;1973;50.518;7.318;2023-08-12T13:16:45;1.50;;;1.40;;
3916;SDS011;1973;50.518;7.318;2023-08-12T13:19:11;2.23;;;1.90;;
3916;SDS011;1973;50.518;7.318;2023-08-12T13:21:38;2.90;;;1.63;;
3916;SDS011;1973;50.518;7.318;2023-08-12T13:24:04;2.20;;;1.63;;
3916;SDS011;1973;50.518;7.318;2023-08-12T13:26:31;4.67;;;1.70;;
3916;SDS011;1973;50.518;7.318;2023-08-12T13:28:58;1.60;;;1.50;;
3916;SDS011;1973;50.518;7.318;2023-08-12T13:31:24;2.40;;;1.47;;
3916;SDS011;1973;50.518;7.318;2023-08-12T13:33:52;3.73;;;2.27;;
3916;SDS011;1973;50.518;7.318;2023-08-12T13:36:18;2.70;;;2.10;;
3916;SDS011;1973;50.518;7.318;2023-08-12T13:38:45;4.70;;;3.30;;
3916;SDS011;1973;50.518;7.318;2023-08-12T13:41:11;2.97;;;2.10;;
3916;SDS011;1973;50.518;7.318;2023-08-12T13:43:38;1.90;;;1.30;;
3916;SDS011;1973;50.518;7.318;2023-08-12T13:46:04;2.10;;;1.37;;
3916;SDS011;1973;50.518;7.318;2023-08-12T13:48:31;1.70;;;1.40;;
3916;SDS011;1973;50.518;7.318;2023-08-12T13:50:58;2.03;;;1.20;;
3916;SDS011;1973;50.518;7.318;2023-08-12T13:53:27;1.50;;;1.23;;
3916;SDS011;1973;50.518;7.318;2023-08-12T13:55:54;1.50;;;1.07;;
3916;SDS011;1973;50.518;7.318;2023-08-12T13:58:20;2.17;;;1.30;;
3916;SDS011;1973;50.518;7.318;2023-08-12T14:00:47;1.50;;;1.20;;
3916;SDS011;1973;50.518;7.318;2023-08-12T14:03:14;1.80;;;1.10;;
3916;SDS011;1973;50.518;7.318;2023-08-12T14:05:41;1.93;;;1.37;;
3916;SDS011;1973;50.518;7.318;2023-08-12T14:08:08;1.90;;;1.40;;
3916;SDS011;1973;50.518;7.318;2023-08-12T14:10:35;2.97;;;1.30;;
3916;SDS011;1973;50.518;7.318;2023-08-12T14:13:01;2.80;;;1.30;;
3916;SDS011;1973;50.518;7.318;2023-08-12T14:15:28;1.60;;;1.47;;
3916;SDS011;1973;50.518;7.318;2023-08-12T14:17:55;1.80;;;1.40;;
3916;SDS011;1973;50.518;7.318;2023-08-12T14:20:21;2.70;;;1.50;;
3916;SDS011;1973;50.518;7.318;2023-08-12T14:22:48;2.50;;;1.20;;
3916;SDS011;1973;50.518;7.318;2023-08-12T14:25:15;2.20;;;1.30;;
3916;SDS011;1973;50.518;7.318;2023-08-12T14:27:41;3.90;;;1.30;;
3916;SDS011;1973;50.518;7.318;2023-08-12T14:30:08;1.33;;;1.17;;
3916;SDS011;1973;50.518;7.318;2023-08-12T14:32:35;1.60;;;1.50;;
3916;SDS011;1973;50.518;7.318;2023-08-12T14:35:02;4.07;;;1.70;;
3916;SDS011;1973;50.518;7.318;2023-08-12T14:37:29;3.83;;;2.00;;
3916;SDS011;1973;50.518;7.318;2023-08-12T14:39:56;2.00;;;1.80;;
3916;SDS011;1973;50.518;7.318;2023-08-12T14:42:22;2.37;;;2.00;;
3916;SDS011;1973;50.518;7.318;2023-08-12T14:44:49;4.10;;;2.10;;
3916;SDS011;1973;50.518;7.318;2023-08-12T14:47:16;3.93;;;2.10;;
3916;SDS011;1973;50.518;7.318;2023-08-12T14:49:42;2.20;;;1.80;;
3916;SDS011;1973;50.518;7.318;2023-08-12T14:52:18;3.50;;;1.90;;
3916;SDS011;1973;50.518;7.318;2023-08-12T14:54:46;3.97;;;2.47;;
3916;SDS011;1973;50.518;7.318;2023-08-12T14:57:13;2.80;;;2.53;;
3916;SDS011;1973;50.518;7.318;2023-08-12T14:59:40;3.40;;;2.40;;
3916;SDS011;1973;50.518;7.318;2023-08-12T15:02:07;2.73;;;1.70;;
3916;SDS011;1973;50.518;7.318;2023-08-12T15:04:33;1.93;;;1.73;;
3916;SDS011;1973;50.518;7.318;2023-08-12T15:07:00;2.27;;;1.90;;
3916;SDS011;1973;50.518;7.318;2023-08-12T15:09:27;2.60;;;1.80;;
3916;SDS011;1973;50.518;7.318;2023-08-12T15:11:54;2.20;;;1.60;;
3916;SDS011;1973;50.518;7.318;2023-08-12T15:14:21;4.30;;;2.40;;
3916;SDS011;1973;50.518;7.318;2023-08-12T15:16:47;2.03;;;1.57;;
3916;SDS011;1973;50.518;7.318;2023-08-12T15:19:14;3.43;;;1.50;;
3916;SDS011;1973;50.518;7.318;2023-08-12T15:21:41;2.90;;;1.60;;
3916;SDS011;1973;50.518;7.318;2023-08-12T15:24:07;1.77;;;1.10;;
3916;SDS011;1973;50.518;7.318;2023-08-12T15:26:34;2.13;;;1.20;;
3916;SDS011;1973;50.518;7.318;2023-08-12T15:29:00;1.30;;;1.00;;